createdAt,value
2023-02-08T00:00:57.149Z,73.93
2023-02-08T00:03:24.748Z,74.15
2023-02-08T00:05:51.402Z,74.61
2023-02-08T00:08:18.303Z,74.35
2023-02-08T00:10:45.319Z,74.00
2023-02-08T00:13:11.946Z,73.49
2023-02-08T00:15:43.373Z,73.90
2023-02-08T00:18:10.247Z,73.82
2023-02-08T00:20:41.808Z,74.03
2023-02-08T00:23:08.843Z,73.79
2023-02-08T00:25:36.173Z,73.98
2023-02-08T00:28:04.718Z,74.48
2023-02-08T00:30:31.952Z,73.99
2023-02-08T00:32:58.813Z,73.93
2023-02-08T00:35:25.630Z,73.82
2023-02-08T00:37:52.610Z,73.76
2023-02-08T00:40:19.313Z,73.89
2023-02-08T00:42:46.167Z,73.58
2023-02-08T00:45:12.986Z,73.45
2023-02-08T00:47:39.658Z,73.02
2023-02-08T00:50:07.111Z,73.10
2023-02-08T00:52:36.374Z,73.66
2023-02-08T00:55:04.977Z,73.55
2023-02-08T00:57:34.967Z,73.51
2023-02-08T01:00:02.296Z,73.47
2023-02-08T01:02:29.379Z,73.60
2023-02-08T01:04:56.057Z,73.46
2023-02-08T01:07:23.182Z,73.14
2023-02-08T01:09:49.784Z,72.72
2023-02-08T01:12:16.503Z,72.86
2023-02-08T01:14:43.214Z,72.91
2023-02-08T01:17:10.060Z,72.72
2023-02-08T01:19:36.686Z,72.78
2023-02-08T01:22:03.436Z,72.78
2023-02-08T01:24:30.050Z,72.99
2023-02-08T01:26:57.043Z,73.20
2023-02-08T01:29:23.694Z,72.84
2023-02-08T01:31:50.491Z,73.40
2023-02-08T01:34:17.160Z,73.18
2023-02-08T01:36:43.987Z,72.99
2023-02-08T01:39:11.289Z,72.80
2023-02-08T01:41:41.925Z,73.29
2023-02-08T01:44:11.345Z,73.07
2023-02-08T01:46:39.216Z,73.26
2023-02-08T01:49:31.949Z,72.19
2023-02-08T01:52:16.124Z,71.96
2023-02-08T01:54:51.607Z,72.20
2023-02-08T01:57:20.878Z,73.19
2023-02-08T01:59:50.045Z,74.62
2023-02-08T02:02:20.903Z,75.83
2023-02-08T02:04:50.179Z,77.17
2023-02-08T02:07:18.798Z,77.94
2023-02-08T02:10:04.106Z,80.33
2023-02-08T02:12:33.014Z,80.71
2023-02-08T02:15:00.908Z,81.98
2023-02-08T02:17:27.722Z,81.97
2023-02-08T02:20:13.097Z,82.01
2023-02-08T02:22:39.923Z,80.79
2023-02-08T02:25:09.480Z,80.94
2023-02-08T02:28:00.765Z,80.76
2023-02-08T02:30:33.292Z,80.25
2023-02-08T02:33:10.285Z,80.27
2023-02-08T02:35:39.855Z,79.47
2023-02-08T02:38:41.644Z,78.32
2023-02-08T02:41:17.866Z,78.95
2023-02-08T02:43:55.179Z,80.63
2023-02-08T02:46:48.094Z,81.18
2023-02-08T02:49:17.916Z,81.93
2023-02-08T02:52:12.268Z,81.84
2023-02-08T02:54:44.997Z,82.92
2023-02-08T02:57:17.448Z,83.82
2023-02-08T02:59:45.110Z,83.91
2023-02-08T03:02:12.834Z,83.38
2023-02-08T03:04:39.480Z,82.42
2023-02-08T03:07:20.701Z,81.48
2023-02-08T03:10:24.861Z,80.49
2023-02-08T03:12:54.612Z,79.26
2023-02-08T03:15:35.324Z,78.54
2023-02-08T03:18:11.012Z,78.41
2023-02-08T03:21:03.086Z,77.94
2023-02-08T03:24:01.967Z,77.03
2023-02-08T03:26:34.492Z,76.43
2023-02-08T03:29:36.433Z,77.36
2023-02-08T03:32:16.952Z,76.63
2023-02-08T03:34:54.278Z,76.60
2023-02-08T03:37:28.795Z,76.65
2023-02-08T03:40:16.791Z,75.80
2023-02-08T03:42:46.322Z,75.66
2023-02-08T03:45:19.886Z,75.88
2023-02-08T03:47:50.827Z,75.17
2023-02-08T03:50:20.567Z,75.38
2023-02-08T03:52:49.129Z,75.48
2023-02-08T03:55:20.258Z,74.90
2023-02-08T03:58:08.550Z,74.94
2023-02-08T04:00:40.665Z,75.01
2023-02-08T04:03:19.752Z,74.83
2023-02-08T04:05:46.479Z,74.37
2023-02-08T04:08:13.140Z,74.49
2023-02-08T04:10:40.216Z,74.50
2023-02-08T04:13:06.948Z,74.55
2023-02-08T04:15:33.709Z,73.91
2023-02-08T04:18:00.736Z,73.90
2023-02-08T04:20:27.586Z,73.38
2023-02-08T04:22:54.290Z,73.69
2023-02-08T04:25:21.090Z,73.38
2023-02-08T04:27:47.766Z,73.29
2023-02-08T04:30:14.779Z,73.09
2023-02-08T04:32:41.417Z,72.99
2023-02-08T04:35:08.280Z,73.52
2023-02-08T04:37:35.299Z,73.48
2023-02-08T04:40:02.232Z,73.42
2023-02-08T04:42:28.841Z,73.47
2023-02-08T04:44:55.617Z,75.08
2023-02-08T04:47:22.392Z,77.73
2023-02-08T04:49:49.119Z,79.72
2023-02-08T04:52:15.722Z,80.95
2023-02-08T04:54:42.501Z,82.65
2023-02-08T04:57:13.240Z,84.25
2023-02-08T04:59:40.047Z,84.22
2023-02-08T05:02:06.770Z,85.73
2023-02-08T05:04:33.578Z,86.60
2023-02-08T05:07:00.334Z,86.65
2023-02-08T05:09:27.053Z,86.57
2023-02-08T05:11:53.682Z,87.17
2023-02-08T05:14:20.368Z,87.01
2023-02-08T05:16:47.013Z,86.70
2023-02-08T05:19:14.460Z,86.64
2023-02-08T05:21:41.074Z,86.00
2023-02-08T05:24:07.997Z,86.19
2023-02-08T05:26:34.584Z,86.07
2023-02-08T05:29:01.272Z,85.57
2023-02-08T05:31:28.320Z,85.85
2023-02-08T05:33:55.069Z,86.13
2023-02-08T05:36:23.076Z,85.25
2023-02-08T05:38:50.377Z,85.41
2023-02-08T05:41:17.456Z,85.31
2023-02-08T05:43:44.244Z,84.33
2023-02-08T05:46:11.055Z,83.71
2023-02-08T05:48:37.978Z,83.47
2023-02-08T05:51:04.653Z,83.20
2023-02-08T05:53:31.686Z,83.05
2023-02-08T05:55:59.198Z,82.23
2023-02-08T05:58:26.543Z,81.77
2023-02-08T06:00:53.304Z,81.67
2023-02-08T06:03:20.169Z,81.70
2023-02-08T06:05:46.839Z,81.77
2023-02-08T06:08:13.726Z,81.83
2023-02-08T06:10:40.589Z,81.93
2023-02-08T06:13:07.523Z,81.68
2023-02-08T06:15:34.170Z,80.90
2023-02-08T06:18:00.930Z,79.49
2023-02-08T06:20:27.617Z,79.15
2023-02-08T06:22:55.077Z,78.33
2023-02-08T06:25:21.677Z,77.50
2023-02-08T06:27:48.829Z,76.89
2023-02-08T06:30:15.883Z,78.04
2023-02-08T06:32:42.676Z,78.03
2023-02-08T06:35:09.932Z,78.60
2023-02-08T06:37:36.879Z,78.48
2023-02-08T06:40:05.001Z,79.45
2023-02-08T06:42:31.720Z,79.18
2023-02-08T06:44:58.410Z,78.37
2023-02-08T06:47:26.289Z,77.54
2023-02-08T06:49:53.086Z,77.03
2023-02-08T06:52:21.027Z,76.69
2023-02-08T06:54:48.105Z,76.67
2023-02-08T06:57:14.868Z,76.06
2023-02-08T06:59:42.242Z,75.99
2023-02-08T07:02:18.442Z,75.74
2023-02-08T07:04:45.790Z,74.57
2023-02-08T07:07:13.592Z,75.75
2023-02-08T07:09:40.276Z,75.57
2023-02-08T07:12:08.377Z,74.77
2023-02-08T07:14:42.479Z,75.23
2023-02-08T07:17:09.772Z,75.09
2023-02-08T07:19:36.552Z,74.81
2023-02-08T07:22:03.482Z,75.29
2023-02-08T07:24:31.035Z,75.08
2023-02-08T07:26:57.712Z,75.42
2023-02-08T07:29:24.297Z,75.49
2023-02-08T07:31:51.192Z,75.97
2023-02-08T07:34:17.823Z,76.16
2023-02-08T07:36:44.526Z,76.39
2023-02-08T07:39:11.492Z,76.58
2023-02-08T07:41:38.140Z,76.62
2023-02-08T07:44:04.823Z,77.23
2023-02-08T07:46:31.531Z,76.33
2023-02-08T07:48:58.181Z,78.18
2023-02-08T07:51:24.935Z,78.18
2023-02-08T07:53:52.023Z,78.27
2023-02-08T07:56:18.869Z,77.93
2023-02-08T07:58:45.443Z,78.45
2023-02-08T08:01:21.829Z,78.56
2023-02-08T08:03:50.504Z,76.58
2023-02-08T08:06:19.029Z,75.12
2023-02-08T08:08:45.678Z,74.72
2023-02-08T08:11:12.245Z,75.26
2023-02-08T08:13:39.289Z,74.97
2023-02-08T08:16:06.238Z,74.64
2023-02-08T08:18:32.894Z,74.92
2023-02-08T08:20:59.654Z,76.38
2023-02-08T08:23:26.390Z,77.06
2023-02-08T08:26:08.441Z,77.92
2023-02-08T08:28:35.675Z,79.55
2023-02-08T08:31:02.614Z,80.02
2023-02-08T08:33:29.332Z,81.32
2023-02-08T08:35:56.040Z,81.32
2023-02-08T08:38:22.728Z,80.04
2023-02-08T08:40:49.339Z,80.28
2023-02-08T08:43:16.377Z,81.10
2023-02-08T08:45:42.957Z,81.41
2023-02-08T08:48:09.664Z,81.73
2023-02-08T08:50:36.364Z,81.05
2023-02-08T08:53:03.325Z,80.94
2023-02-08T08:55:29.950Z,80.99
2023-02-08T08:57:56.652Z,80.76
2023-02-08T09:00:23.377Z,80.42
2023-02-08T09:02:50.137Z,80.48
2023-02-08T09:05:17.397Z,80.85
2023-02-08T09:07:44.084Z,79.94
2023-02-08T09:10:10.676Z,79.96
2023-02-08T09:12:37.525Z,78.64
2023-02-08T09:15:04.338Z,79.68
2023-02-08T09:17:30.976Z,80.24
2023-02-08T09:19:57.733Z,79.71
2023-02-08T09:22:24.366Z,79.65
2023-02-08T09:24:52.916Z,79.56
2023-02-08T09:27:20.028Z,77.80
2023-02-08T09:29:46.634Z,77.26
2023-02-08T09:32:13.648Z,77.80
2023-02-08T09:34:40.404Z,77.45
2023-02-08T09:37:07.118Z,78.52
2023-02-08T09:39:34.060Z,77.79
2023-02-08T09:42:32.827Z,78.50
2023-02-08T09:45:20.237Z,78.10
2023-02-08T09:47:58.249Z,77.97
2023-02-08T09:50:45.469Z,77.86
2023-02-08T09:53:21.569Z,76.89
2023-02-08T09:55:53.516Z,76.04
2023-02-08T09:58:26.474Z,77.26
2023-02-08T10:00:54.801Z,77.11
2023-02-08T10:03:31.253Z,76.68
2023-02-08T10:05:58.337Z,76.63
2023-02-08T10:08:34.909Z,77.13
2023-02-08T10:11:20.860Z,76.82
2023-02-08T10:14:16.230Z,76.50
2023-02-08T10:17:15.422Z,75.87
2023-02-08T10:19:45.060Z,76.02
2023-02-08T10:22:35.346Z,76.09
2023-02-08T10:25:36.103Z,77.28
2023-02-08T10:28:28.756Z,77.79
2023-02-08T10:31:15.815Z,77.01
2023-02-08T10:33:47.482Z,77.48
2023-02-08T10:36:25.832Z,77.92
2023-02-08T10:38:55.435Z,77.39
2023-02-08T10:41:28.332Z,78.39
2023-02-08T10:44:21.517Z,79.00
2023-02-08T10:46:52.228Z,80.60
2023-02-08T10:49:31.156Z,79.53
2023-02-08T10:51:57.844Z,80.36
2023-02-08T10:54:24.530Z,81.38
2023-02-08T10:56:55.911Z,81.21
2023-02-08T10:59:27.437Z,77.91
2023-02-08T11:01:56.369Z,77.23
2023-02-08T11:04:23.166Z,76.52
2023-02-08T11:06:51.044Z,78.78
2023-02-08T11:09:20.754Z,77.76
2023-02-08T11:11:48.719Z,75.87
2023-02-08T11:14:18.312Z,75.38
2023-02-08T11:16:56.754Z,75.80
2023-02-08T11:19:29.761Z,77.83
2023-02-08T11:21:56.800Z,76.52
2023-02-08T11:24:39.777Z,73.77
2023-02-08T11:27:36.622Z,75.68
2023-02-08T11:30:09.446Z,74.56
2023-02-08T11:32:36.186Z,72.00
2023-02-08T11:35:18.285Z,71.75
2023-02-08T11:37:50.916Z,72.13
2023-02-08T11:40:34.581Z,70.53
2023-02-08T11:43:02.102Z,70.56
2023-02-08T11:45:35.106Z,69.44
2023-02-08T11:48:03.528Z,67.32
2023-02-08T11:50:36.765Z,65.65
2023-02-08T11:53:17.536Z,67.41
2023-02-08T11:55:44.676Z,63.07
2023-02-08T11:58:14.574Z,60.42
2023-02-08T12:00:41.436Z,60.85
2023-02-08T12:03:16.948Z,62.96
2023-02-08T12:06:09.406Z,62.46
2023-02-08T12:08:40.859Z,60.78
2023-02-08T12:11:43.372Z,60.12
2023-02-08T12:14:31.486Z,59.75
2023-02-08T12:17:26.244Z,59.34
2023-02-08T12:20:13.000Z,58.15
2023-02-08T12:22:47.342Z,57.71
2023-02-08T12:25:40.315Z,56.67
2023-02-08T12:28:25.256Z,58.14
2023-02-08T12:31:03.340Z,58.46
2023-02-08T12:33:36.097Z,58.39
2023-02-08T12:36:04.998Z,58.81
2023-02-08T12:38:50.256Z,57.22
2023-02-08T12:41:23.206Z,59.43
2023-02-08T12:44:12.898Z,55.87
2023-02-08T12:47:09.376Z,54.59
2023-02-08T12:49:55.880Z,57.71
2023-02-08T12:52:36.118Z,56.16
2023-02-08T12:55:28.976Z,54.92
2023-02-08T12:58:24.938Z,54.29
2023-02-08T13:00:53.912Z,53.48
2023-02-08T13:03:41.763Z,56.13
2023-02-08T13:06:15.924Z,59.03
2023-02-08T13:08:52.613Z,56.58
2023-02-08T13:11:34.654Z,58.41
2023-02-08T13:14:18.297Z,57.60
2023-02-08T13:16:52.314Z,59.51
2023-02-08T13:19:32.900Z,59.47
2023-02-08T13:22:00.992Z,59.87
2023-02-08T13:24:34.189Z,56.64
2023-02-08T13:27:01.036Z,55.32
2023-02-08T13:29:29.411Z,57.72
2023-02-08T13:32:06.581Z,56.79
2023-02-08T13:34:56.868Z,56.26
2023-02-08T13:37:30.192Z,55.20
2023-02-08T13:40:16.875Z,56.44
2023-02-08T13:42:49.568Z,55.17
2023-02-08T13:45:30.671Z,55.74
2023-02-08T13:48:00.711Z,55.76
2023-02-08T13:50:29.152Z,57.13
2023-02-08T13:52:56.296Z,57.87
2023-02-08T13:55:29.052Z,56.86
2023-02-08T13:58:01.996Z,56.48
2023-02-08T14:00:29.688Z,56.00
2023-02-08T14:03:14.910Z,56.27
2023-02-08T14:06:20.894Z,57.43
2023-02-08T14:09:14.862Z,56.86
2023-02-08T14:11:44.541Z,55.42
2023-02-08T14:14:32.262Z,58.09
2023-02-08T14:17:05.072Z,58.70
2023-02-08T14:19:43.695Z,58.46
2023-02-08T14:22:13.403Z,60.74
2023-02-08T14:24:49.360Z,60.35
2023-02-08T14:27:27.050Z,60.52
2023-02-08T14:30:18.003Z,62.01
2023-02-08T14:32:48.654Z,61.52
2023-02-08T14:35:15.196Z,61.46
2023-02-08T14:37:43.641Z,61.13
2023-02-08T14:40:19.449Z,60.64
2023-02-08T14:43:01.615Z,61.58
2023-02-08T14:45:37.482Z,63.45
2023-02-08T14:48:32.575Z,63.67
2023-02-08T14:51:08.395Z,63.73
2023-02-08T14:53:47.244Z,64.67
2023-02-08T14:56:44.266Z,62.35
2023-02-08T14:59:16.814Z,62.40
2023-02-08T15:01:47.908Z,62.51
2023-02-08T15:04:15.737Z,63.49
2023-02-08T15:10:19.120Z,63.32
2023-02-08T15:12:50.503Z,62.11
2023-02-08T15:15:32.555Z,62.40
2023-02-08T15:18:02.066Z,61.38
2023-02-08T15:20:32.130Z,60.89
2023-02-08T15:23:03.371Z,62.90
2023-02-08T15:25:36.078Z,63.71
2023-02-08T15:28:24.692Z,64.62
2023-02-08T15:31:09.785Z,65.51
2023-02-08T15:33:40.805Z,65.90
2023-02-08T15:36:17.666Z,64.23
2023-02-08T15:38:45.029Z,63.51
2023-02-08T15:41:24.090Z,65.35
2023-02-08T15:43:50.867Z,64.35
2023-02-08T15:46:25.522Z,63.41
2023-02-08T15:48:53.649Z,64.99
2023-02-08T15:51:21.378Z,66.42
2023-02-08T15:54:17.998Z,66.88
2023-02-08T15:57:19.672Z,64.85
2023-02-08T15:59:47.979Z,63.69
2023-02-08T16:02:28.407Z,63.23
2023-02-08T16:04:56.373Z,62.62
2023-02-08T16:07:34.754Z,62.18
2023-02-08T16:10:01.899Z,62.91
2023-02-08T16:12:28.957Z,65.28
2023-02-08T16:14:56.041Z,66.06
2023-02-08T16:17:28.868Z,65.19
2023-02-08T16:19:55.731Z,65.16
2023-02-08T16:22:22.258Z,65.29
2023-02-08T16:24:49.029Z,66.20
2023-02-08T16:27:22.961Z,68.19
2023-02-08T16:29:50.047Z,68.37
2023-02-08T16:32:32.988Z,69.28
2023-02-08T16:35:00.286Z,69.76
2023-02-08T16:37:30.370Z,70.05
2023-02-08T16:40:07.947Z,69.68
2023-02-08T16:42:36.898Z,70.13
2023-02-08T16:45:09.501Z,71.01
2023-02-08T16:47:37.441Z,70.10
2023-02-08T16:50:05.805Z,68.87
2023-02-08T16:52:33.595Z,68.74
2023-02-08T16:55:00.461Z,68.66
2023-02-08T16:57:48.649Z,70.23
2023-02-08T17:00:30.680Z,71.13
2023-02-08T17:02:57.959Z,71.76
2023-02-08T17:05:28.450Z,72.37
2023-02-08T17:07:55.290Z,72.82
2023-02-08T17:10:32.527Z,73.17
2023-02-08T17:13:18.636Z,71.03
2023-02-08T17:15:48.703Z,71.37
2023-02-08T17:18:16.668Z,71.48
2023-02-08T17:20:46.294Z,72.15
2023-02-08T17:23:18.241Z,71.89
2023-02-08T17:29:21.141Z,71.72
2023-02-08T17:32:20.993Z,72.52
2023-02-08T17:35:22.272Z,74.60
2023-02-08T17:38:07.674Z,75.61
2023-02-08T17:40:57.850Z,76.53
2023-02-08T17:43:56.099Z,76.36
2023-02-08T17:46:38.953Z,76.32
2023-02-08T17:49:46.169Z,76.50
2023-02-08T17:52:58.689Z,75.10
2023-02-08T17:55:44.226Z,74.41
2023-02-08T18:01:57.206Z,73.77
2023-02-08T18:05:07.720Z,74.87
2023-02-08T18:11:22.146Z,72.92
2023-02-08T18:14:04.851Z,73.70
2023-02-08T18:16:31.661Z,73.60
2023-02-08T18:18:59.226Z,73.72
2023-02-08T18:21:32.134Z,73.97
2023-02-08T18:24:04.858Z,73.55
2023-02-08T18:26:33.901Z,74.82
2023-02-08T18:29:03.816Z,76.30
2023-02-08T18:31:35.138Z,77.09
2023-02-08T18:34:02.072Z,77.59
2023-02-08T18:36:34.919Z,77.98
2023-02-08T18:39:21.712Z,76.73
2023-02-08T18:42:19.246Z,75.99
2023-02-08T18:44:58.079Z,75.36
2023-02-08T18:47:24.847Z,76.26
2023-02-08T18:49:57.320Z,76.95
2023-02-08T18:52:45.657Z,76.81
2023-02-08T18:55:15.761Z,77.18
2023-02-08T18:57:42.640Z,77.82
2023-02-08T19:00:13.688Z,77.73
2023-02-08T19:02:40.628Z,78.04
2023-02-08T19:05:18.128Z,77.21
2023-02-08T19:07:45.026Z,77.27
2023-02-08T19:10:12.620Z,77.74
2023-02-08T19:12:39.458Z,77.62
2023-02-08T19:15:06.550Z,77.52
2023-02-08T19:17:33.279Z,78.72
2023-02-08T19:20:35.421Z,79.45
2023-02-08T19:23:03.404Z,79.48
2023-02-08T19:25:30.430Z,80.07
2023-02-08T19:27:57.697Z,80.32
2023-02-08T19:30:25.635Z,80.55
2023-02-08T19:32:55.102Z,80.73
2023-02-08T19:35:22.176Z,81.48
2023-02-08T19:37:50.368Z,81.66
2023-02-08T19:40:18.784Z,82.53
2023-02-08T19:42:46.262Z,82.74
2023-02-08T19:45:13.840Z,82.39
2023-02-08T19:47:51.449Z,82.51
2023-02-08T19:50:18.732Z,82.06
2023-02-08T19:52:45.334Z,81.52
2023-02-08T19:55:21.796Z,80.76
2023-02-08T19:57:50.145Z,79.46
2023-02-08T20:00:23.433Z,78.24
2023-02-08T20:02:51.615Z,77.08
2023-02-08T20:05:20.172Z,76.15
2023-02-08T20:07:50.099Z,75.37
2023-02-08T20:10:21.301Z,75.28
2023-02-08T20:12:49.325Z,75.24
2023-02-08T20:22:57.143Z,74.75
2023-02-08T20:25:37.085Z,74.68
2023-02-08T20:31:43.218Z,73.20
2023-02-08T20:34:15.247Z,73.23
2023-02-08T20:36:49.677Z,72.90
2023-02-08T20:39:21.703Z,72.44
2023-02-08T20:41:51.534Z,72.61
2023-02-08T20:44:20.748Z,72.77
2023-02-08T20:46:47.516Z,73.38
2023-02-08T20:49:14.455Z,72.07
2023-02-08T20:51:44.339Z,72.31
2023-02-08T20:54:13.667Z,71.93
2023-02-08T20:56:40.503Z,71.86
2023-02-08T20:59:11.125Z,71.46
2023-02-08T21:01:38.060Z,71.24
2023-02-08T21:07:16.564Z,71.91
2023-02-08T21:12:48.239Z,72.05
2023-02-08T21:15:27.730Z,72.20
2023-02-08T21:17:54.701Z,72.10
2023-02-08T21:20:22.078Z,72.02
2023-02-08T21:23:24.756Z,72.05
2023-02-08T21:25:53.051Z,71.94
2023-02-08T21:28:21.633Z,72.83
2023-02-08T21:31:04.472Z,72.46
2023-02-08T21:33:31.458Z,74.08
2023-02-08T21:36:02.782Z,74.05
2023-02-08T21:38:29.895Z,73.37
2023-02-08T21:40:56.670Z,73.13
2023-02-08T21:43:23.620Z,73.47
2023-02-08T21:45:50.459Z,74.88
2023-02-08T21:48:17.269Z,74.40
2023-02-08T21:50:44.305Z,73.16
2023-02-08T21:53:15.771Z,72.97
2023-02-08T21:55:46.670Z,73.16
2023-02-08T21:58:13.674Z,72.55
2023-02-08T22:00:40.639Z,72.24
2023-02-08T22:03:07.415Z,72.16
2023-02-08T22:05:34.212Z,71.15
2023-02-08T22:08:01.467Z,72.91
2023-02-08T22:10:30.850Z,73.07
2023-02-08T22:12:58.499Z,73.01
2023-02-08T22:15:28.194Z,72.34
2023-02-08T22:17:57.732Z,72.11
2023-02-08T22:20:25.594Z,72.11
2023-02-08T22:22:55.322Z,72.22
2023-02-08T22:25:22.690Z,72.17
2023-02-08T22:27:50.704Z,70.94
2023-02-08T22:30:18.672Z,71.25
2023-02-08T22:32:48.540Z,71.28
2023-02-08T22:35:17.072Z,71.68
2023-02-08T22:37:44.267Z,71.08
2023-02-08T22:40:11.660Z,71.21
2023-02-08T22:42:39.887Z,71.61
2023-02-08T22:45:06.914Z,71.15
2023-02-08T22:47:34.623Z,71.86
2023-02-08T22:50:01.458Z,71.72
2023-02-08T22:52:28.262Z,71.46
2023-02-08T22:54:54.891Z,71.79
2023-02-08T22:57:22.044Z,71.82
2023-02-08T22:59:48.899Z,71.62
2023-02-08T23:02:15.561Z,71.60
2023-02-08T23:04:42.283Z,71.09
2023-02-08T23:07:09.190Z,70.54
2023-02-08T23:09:35.879Z,71.06
2023-02-08T23:12:02.892Z,71.01
2023-02-08T23:14:29.892Z,70.41
2023-02-08T23:16:56.660Z,70.43
2023-02-08T23:19:23.497Z,71.18
2023-02-08T23:21:50.357Z,71.19
2023-02-08T23:24:17.125Z,71.30
2023-02-08T23:26:43.938Z,71.06
2023-02-08T23:29:10.548Z,71.04
2023-02-08T23:31:40.216Z,71.62
2023-02-08T23:34:06.913Z,71.45
2023-02-08T23:36:33.702Z,70.93
2023-02-08T23:39:01.149Z,71.14
2023-02-08T23:41:27.876Z,71.28
2023-02-08T23:43:54.590Z,70.43
2023-02-08T23:46:24.374Z,71.08
2023-02-08T23:48:51.819Z,71.27
2023-02-08T23:51:21.072Z,70.48
2023-02-08T23:53:48.276Z,70.85
2023-02-08T23:56:16.669Z,71.05
2023-02-08T23:58:50.384Z,70.61
